createdAt,value
2023-01-13T00:05:01.931Z,103612.66
2023-01-13T00:10:07.410Z,103597.84
2023-01-13T00:15:11.298Z,103605.78
2023-01-13T00:20:14.250Z,103608.75
2023-01-13T00:25:17.286Z,103597.13
2023-01-13T00:30:20.260Z,103598.41
2023-01-13T00:35:23.395Z,103597.94
2023-01-13T00:40:26.428Z,103575.38
2023-01-13T00:45:29.396Z,103581.78
2023-01-13T00:50:32.911Z,103577.06
2023-01-13T00:55:35.738Z,103560.31
2023-01-13T01:00:38.609Z,103591.56
2023-01-13T01:05:47.535Z,103562.41
2023-01-13T01:21:29.590Z,103566.50
2023-01-13T01:26:33.227Z,103552.28
2023-01-13T01:31:35.939Z,103533.59
2023-01-13T01:36:40.287Z,103576.09
2023-01-13T01:42:02.905Z,103550.91
2023-01-13T01:47:05.990Z,103544.41
2023-01-13T01:52:15.275Z,103564.38
2023-01-13T01:57:21.452Z,103580.47
2023-01-13T02:02:24.645Z,103547.03
2023-01-13T02:07:31.161Z,103542.63
2023-01-13T02:12:36.384Z,103548.47
2023-01-13T02:17:54.880Z,103533.44
2023-01-13T02:23:40.739Z,103545.97
2023-01-13T02:29:31.839Z,103527.19
2023-01-13T02:34:42.883Z,103544.72
2023-01-13T02:40:02.877Z,103522.66
2023-01-13T02:45:15.397Z,103500.50
2023-01-13T02:50:21.453Z,103539.59
2023-01-13T02:55:47.103Z,103526.03
2023-01-13T03:00:50.307Z,103502.16
2023-01-13T03:06:09.427Z,103505.03
2023-01-13T03:11:14.918Z,103494.59
2023-01-13T03:16:55.052Z,103511.63
2023-01-13T03:22:09.349Z,103499.84
2023-01-13T03:27:34.034Z,103498.19
2023-01-13T03:32:42.659Z,103494.50
2023-01-13T03:37:51.485Z,103511.75
2023-01-13T03:43:19.575Z,103516.34
2023-01-13T03:48:25.889Z,103512.59
2023-01-13T03:53:36.762Z,103500.91
2023-01-13T03:58:47.985Z,103510.75
2023-01-13T04:04:01.847Z,103525.25
2023-01-13T04:09:33.861Z,103533.97
2023-01-13T04:14:37.632Z,103531.94
2023-01-13T04:19:40.502Z,103532.38
2023-01-13T04:24:43.434Z,103501.28
2023-01-13T04:29:46.300Z,103505.97
2023-01-13T04:34:49.335Z,103516.78
2023-01-13T04:39:52.315Z,103523.47
2023-01-13T04:44:55.179Z,103520.25
2023-01-13T04:49:58.121Z,103512.50
2023-01-13T04:55:01.012Z,103506.59
2023-01-13T05:00:06.796Z,103534.09
2023-01-13T05:05:10.819Z,103527.44
2023-01-13T05:10:13.757Z,103522.03
2023-01-13T05:15:35.578Z,103539.75
2023-01-13T05:20:38.800Z,103547.09
2023-01-13T05:25:44.564Z,103545.22
2023-01-13T05:30:49.720Z,103539.25
2023-01-13T05:35:53.333Z,103536.72
2023-01-13T05:49:06.688Z,103533.66
2023-01-13T05:54:09.888Z,103523.78
2023-01-13T05:59:12.646Z,103546.94
2023-01-13T06:04:16.897Z,103527.06
2023-01-13T06:09:21.354Z,103563.94
2023-01-13T06:14:24.410Z,103555.41
2023-01-13T06:19:27.920Z,103538.34
2023-01-13T06:24:31.133Z,103544.88
2023-01-13T06:29:34.592Z,103548.69
2023-01-13T06:34:40.108Z,103548.09
2023-01-13T06:39:43.381Z,103545.44
2023-01-13T06:44:46.535Z,103561.97
2023-01-13T06:49:49.768Z,103538.47
2023-01-13T06:54:52.604Z,103544.97
2023-01-13T06:59:55.408Z,103550.28
2023-01-13T07:05:00.494Z,103560.97
2023-01-13T07:10:22.832Z,103560.16
2023-01-13T07:15:27.575Z,103567.19
2023-01-13T07:20:31.151Z,103552.44
2023-01-13T07:25:34.332Z,103554.69
2023-01-13T07:30:40.815Z,103538.84
2023-01-13T07:35:44.075Z,103560.91
2023-01-13T07:40:47.139Z,103547.13
2023-01-13T07:45:50.351Z,103529.34
2023-01-13T07:50:53.949Z,103528.03
2023-01-13T07:56:05.462Z,103526.91
2023-01-13T08:01:11.366Z,103532.22
2023-01-13T08:06:20.191Z,103545.44
2023-01-13T08:11:23.762Z,103502.19
2023-01-13T08:16:26.994Z,103513.94
2023-01-13T08:21:30.088Z,103514.00
2023-01-13T08:26:33.047Z,103504.53
2023-01-13T08:31:35.787Z,103479.56
2023-01-13T08:36:38.637Z,103494.22
2023-01-13T08:41:56.392Z,103481.03
2023-01-13T08:47:00.058Z,103474.94
2023-01-13T08:52:05.096Z,103485.91
2023-01-13T08:57:08.598Z,103469.78
2023-01-13T09:02:18.863Z,103478.16
2023-01-13T09:07:22.182Z,103455.78
2023-01-13T09:12:43.821Z,103452.16
2023-01-13T09:17:48.211Z,103451.00
2023-01-13T09:22:51.037Z,103444.34
2023-01-13T09:27:53.732Z,103446.69
2023-01-13T09:33:19.291Z,103441.03
2023-01-13T09:38:22.160Z,103446.69
2023-01-13T09:43:53.002Z,103444.50
2023-01-13T09:48:58.346Z,103442.97
2023-01-13T09:54:38.373Z,103441.16
2023-01-13T09:59:41.812Z,103455.44
2023-01-13T10:04:45.895Z,103456.44
2023-01-13T10:09:53.229Z,103447.75
2023-01-13T10:14:56.666Z,103431.72
2023-01-13T10:20:23.077Z,103439.19
2023-01-13T10:25:36.962Z,103435.75
2023-01-13T10:30:45.743Z,103453.31
2023-01-13T10:36:13.432Z,103452.19
2023-01-13T10:41:18.843Z,103426.03
2023-01-13T10:46:21.908Z,103429.72
2023-01-13T10:51:39.796Z,103439.81
2023-01-13T10:56:45.304Z,103423.78
2023-01-13T11:02:24.200Z,103425.19
2023-01-13T11:07:31.245Z,103428.09
2023-01-13T11:12:41.173Z,103411.97
2023-01-13T11:17:48.078Z,103423.91
2023-01-13T11:22:58.244Z,103399.59
2023-01-13T11:28:19.064Z,103417.28
2023-01-13T11:33:31.294Z,103430.22
2023-01-13T11:38:44.682Z,103444.13
2023-01-13T11:43:55.155Z,103422.41
2023-01-13T11:48:58.136Z,103423.53
2023-01-13T11:54:24.943Z,103429.16
2023-01-13T11:59:43.074Z,103434.34
2023-01-13T12:04:57.725Z,103430.75
2023-01-13T12:10:17.690Z,103427.56
2023-01-13T12:15:46.689Z,103446.00
2023-01-13T12:21:01.303Z,103436.25
2023-01-13T12:26:11.314Z,103457.75
2023-01-13T12:31:14.554Z,103422.72
2023-01-13T12:36:45.931Z,103444.94
2023-01-13T12:42:20.833Z,103464.97
2023-01-13T12:47:45.818Z,103446.00
2023-01-13T12:52:50.023Z,103447.53
2023-01-13T12:58:03.285Z,103472.06
2023-01-13T13:03:16.655Z,103491.59
2023-01-13T13:08:35.409Z,103476.16
2023-01-13T13:13:47.919Z,103488.56
2023-01-13T13:18:51.575Z,103478.53
2023-01-13T13:23:56.047Z,103497.97
2023-01-13T13:29:38.026Z,103494.16
2023-01-13T13:34:58.916Z,103504.16
2023-01-13T13:40:37.702Z,103499.75
2023-01-13T13:46:10.297Z,103508.72
2023-01-13T13:51:49.659Z,103521.41
2023-01-13T13:56:53.226Z,103523.53
2023-01-13T14:02:04.149Z,103521.16
2023-01-13T14:07:22.629Z,103505.00
2023-01-13T14:12:28.404Z,103525.91
2023-01-13T14:17:31.685Z,103526.75
2023-01-13T14:22:34.877Z,103482.34
2023-01-13T14:27:43.626Z,103498.25
2023-01-13T14:32:47.592Z,103506.50
2023-01-13T14:37:54.613Z,103511.72
2023-01-13T14:43:02.424Z,103517.31
2023-01-13T14:48:09.230Z,103520.25
2023-01-13T14:53:47.251Z,103511.44
2023-01-13T14:58:50.394Z,103519.47
2023-01-13T15:03:53.382Z,103477.38
2023-01-13T15:08:56.619Z,103503.38
2023-01-13T15:14:01.777Z,103492.53
2023-01-13T15:19:04.786Z,103524.16
2023-01-13T15:24:07.825Z,103495.22
2023-01-13T15:29:17.389Z,103496.25
2023-01-13T15:34:20.227Z,103514.06
2023-01-13T15:39:23.000Z,103478.69
2023-01-13T15:44:44.181Z,103488.78
2023-01-13T15:49:47.517Z,103484.75
2023-01-13T15:54:51.520Z,103494.03
2023-01-13T15:59:58.056Z,103463.31
2023-01-13T16:05:01.036Z,103494.34
2023-01-13T16:10:15.301Z,103479.09
2023-01-13T16:15:22.635Z,103469.94
2023-01-13T16:20:26.164Z,103489.31
2023-01-13T16:25:29.159Z,103454.38
2023-01-13T16:30:37.505Z,103454.75
2023-01-13T16:36:09.969Z,103471.91
2023-01-13T16:41:03.202Z,103474.63
2023-01-13T16:46:29.146Z,103472.13
2023-01-13T16:51:33.977Z,103457.97
2023-01-13T16:56:37.448Z,103465.94
2023-01-13T17:01:42.491Z,103460.97
2023-01-13T17:07:03.480Z,103448.78
2023-01-13T17:12:06.513Z,103449.28
2023-01-13T17:17:22.175Z,103465.34
2023-01-13T17:22:25.233Z,103462.50
2023-01-13T17:27:28.113Z,103473.81
2023-01-13T17:32:31.015Z,103448.72
2023-01-13T17:37:34.692Z,103449.31
2023-01-13T17:42:37.938Z,103476.19
2023-01-13T17:47:40.835Z,103466.25
2023-01-13T17:52:43.829Z,103472.09
2023-01-13T17:57:46.677Z,103481.41
2023-01-13T18:02:49.599Z,103466.09
2023-01-13T18:07:52.484Z,103453.34
2023-01-13T18:12:56.534Z,103473.00
2023-01-13T18:17:59.478Z,103457.91
2023-01-13T18:23:21.374Z,103481.84
2023-01-13T18:28:24.156Z,103475.66
2023-01-13T18:33:26.922Z,103476.47
2023-01-13T18:38:29.847Z,103467.84
2023-01-13T18:43:34.074Z,103472.66
2023-01-13T18:48:37.010Z,103456.84
2023-01-13T18:53:39.944Z,103441.13
2023-01-13T18:58:51.731Z,103452.59
2023-01-13T19:04:03.641Z,103458.25
2023-01-13T19:09:11.400Z,103454.41
2023-01-13T19:14:34.362Z,103463.84
2023-01-13T19:19:45.368Z,103448.41
2023-01-13T19:24:48.223Z,103459.53
2023-01-13T19:29:52.869Z,103445.38
2023-01-13T19:34:59.510Z,103451.13
2023-01-13T19:40:04.850Z,103430.44
2023-01-13T19:45:33.169Z,103438.34
2023-01-13T19:50:40.191Z,103453.19
2023-01-13T19:55:48.741Z,103450.06
2023-01-13T20:00:52.737Z,103426.06
2023-01-13T20:05:55.805Z,103439.00
2023-01-13T20:11:19.040Z,103433.72
2023-01-13T20:16:21.981Z,103421.13
2023-01-13T20:21:24.977Z,103434.59
2023-01-13T20:26:27.852Z,103452.69
2023-01-13T20:31:30.695Z,103417.84
2023-01-13T20:36:37.564Z,103431.28
2023-01-13T20:41:58.653Z,103396.22
2023-01-13T20:47:03.032Z,103415.88
2023-01-13T20:52:09.890Z,103419.03
2023-01-13T20:57:13.193Z,103433.66
2023-01-13T21:02:17.577Z,103406.34
2023-01-13T21:07:20.445Z,103417.59
2023-01-13T21:12:41.523Z,103404.06
2023-01-13T21:18:04.075Z,103417.03
2023-01-13T21:23:08.315Z,103396.22
2023-01-13T21:28:13.706Z,103384.75
2023-01-13T21:33:16.562Z,103426.97
2023-01-13T21:38:19.678Z,103420.41
2023-01-13T21:43:41.151Z,103432.63
2023-01-13T21:48:43.929Z,103423.25
2023-01-13T21:53:46.772Z,103420.94
2023-01-13T21:58:49.862Z,103425.69
2023-01-13T22:04:10.987Z,103452.59
2023-01-13T22:09:13.862Z,103460.53
2023-01-13T22:14:16.857Z,103441.09
2023-01-13T22:19:19.927Z,103446.16
2023-01-13T22:24:25.518Z,103433.22
2023-01-13T22:29:28.480Z,103461.63
2023-01-13T22:34:31.309Z,103435.28
2023-01-13T22:39:34.542Z,103448.00
2023-01-13T22:44:37.283Z,103443.84
2023-01-13T22:49:42.281Z,103444.91
2023-01-13T22:54:45.016Z,103445.88
2023-01-13T22:59:47.884Z,103457.31
2023-01-13T23:04:51.059Z,103450.78
2023-01-13T23:09:54.058Z,103456.94
2023-01-13T23:14:56.889Z,103456.53
2023-01-13T23:19:59.859Z,103451.34
2023-01-13T23:25:02.756Z,103459.72
2023-01-13T23:30:08.862Z,103460.91
2023-01-13T23:35:11.660Z,103461.72
2023-01-13T23:40:15.133Z,103446.66
2023-01-13T23:45:18.122Z,103449.88
2023-01-13T23:50:21.112Z,103461.81
2023-01-13T23:55:24.029Z,103441.97
